createdAt,value
2022-10-02T00:02:55.715Z,12.67
2022-10-02T00:06:03.284Z,12.66
2022-10-02T00:09:07.922Z,12.58
2022-10-02T00:12:18.474Z,12.57
2022-10-02T00:15:23.657Z,12.47
2022-10-02T00:18:30.341Z,12.37
2022-10-02T00:21:40.241Z,12.27
2022-10-02T00:24:52.003Z,12.18
2022-10-02T00:28:12.962Z,12.12
2022-10-02T00:31:27.681Z,12.14
2022-10-02T00:34:33.102Z,12.00
2022-10-02T00:37:35.613Z,11.95
2022-10-02T00:40:40.644Z,12.00
2022-10-02T00:43:43.146Z,11.95
2022-10-02T00:46:50.120Z,11.95
2022-10-02T00:49:58.600Z,11.96
2022-10-02T00:53:13.214Z,11.86
2022-10-02T00:56:15.815Z,11.79
2022-10-02T00:59:27.289Z,11.76
2022-10-02T01:02:43.563Z,11.70
2022-10-02T01:05:46.036Z,11.55
2022-10-02T01:08:48.536Z,11.56
2022-10-02T01:11:51.352Z,11.56
2022-10-02T01:14:53.886Z,11.55
2022-10-02T01:17:56.733Z,11.57
2022-10-02T01:21:02.212Z,11.55
2022-10-02T01:24:04.602Z,11.44
2022-10-02T01:27:07.196Z,11.45
2022-10-02T01:30:11.530Z,11.44
2022-10-02T01:33:14.785Z,11.39
2022-10-02T01:36:17.212Z,11.42
2022-10-02T01:39:19.721Z,11.41
2022-10-02T01:42:21.983Z,11.44
2022-10-02T01:45:32.986Z,11.42
2022-10-02T01:48:54.172Z,11.41
2022-10-02T01:52:21.081Z,11.32
2022-10-02T01:55:35.577Z,11.29
2022-10-02T01:59:16.511Z,11.10
2022-10-02T02:02:33.633Z,10.96
2022-10-02T02:05:45.287Z,10.84
2022-10-02T02:08:58.513Z,10.81
2022-10-02T02:12:15.196Z,10.71
2022-10-02T02:15:24.444Z,10.75
2022-10-02T02:18:27.071Z,10.71
2022-10-02T02:21:31.162Z,10.63
2022-10-02T02:24:41.873Z,10.58
2022-10-02T02:27:46.724Z,10.50
2022-10-02T02:30:50.676Z,10.52
2022-10-02T02:33:59.450Z,10.65
2022-10-02T02:37:05.043Z,10.62
2022-10-02T02:40:10.315Z,10.58
2022-10-02T02:43:22.566Z,10.80
2022-10-02T02:46:28.663Z,10.79
2022-10-02T02:49:36.752Z,10.76
2022-10-02T02:52:45.540Z,10.89
2022-10-02T02:55:52.090Z,10.81
2022-10-02T02:58:58.950Z,10.75
2022-10-02T03:02:01.808Z,10.78
2022-10-02T03:05:10.551Z,10.76
2022-10-02T03:08:19.143Z,10.91
2022-10-02T03:11:30.584Z,10.83
2022-10-02T03:14:45.717Z,10.82
2022-10-02T03:17:53.742Z,10.90
2022-10-02T03:21:06.535Z,11.00
2022-10-02T03:24:08.804Z,11.09
2022-10-02T03:27:14.466Z,11.12
2022-10-02T03:30:21.932Z,11.17
2022-10-02T03:33:25.664Z,11.18
2022-10-02T03:36:28.034Z,11.20
2022-10-02T03:39:30.544Z,11.22
2022-10-02T03:42:34.738Z,11.26
2022-10-02T03:45:50.929Z,11.30
2022-10-02T03:48:56.498Z,11.39
2022-10-02T03:51:59.191Z,11.40
2022-10-02T03:55:02.759Z,11.45
2022-10-02T03:58:15.975Z,11.62
2022-10-02T04:01:18.353Z,11.68
2022-10-02T04:04:30.417Z,11.64
2022-10-02T04:07:35.773Z,11.65
2022-10-02T04:10:44.876Z,11.71
2022-10-02T04:13:48.712Z,11.76
2022-10-02T04:16:52.087Z,11.81
2022-10-02T04:19:59.396Z,11.67
2022-10-02T04:23:22.235Z,11.64
2022-10-02T04:26:29.716Z,11.42
2022-10-02T04:29:36.549Z,11.33
2022-10-02T04:32:38.917Z,11.23
2022-10-02T04:36:07.419Z,11.33
2022-10-02T04:39:19.236Z,11.16
2022-10-02T04:42:26.365Z,11.10
2022-10-02T04:45:33.294Z,11.10
2022-10-02T04:48:38.666Z,11.13
2022-10-02T04:51:59.994Z,11.15
2022-10-02T04:55:15.895Z,11.31
2022-10-02T04:58:37.918Z,11.26
2022-10-02T05:01:56.817Z,11.32
2022-10-02T05:05:24.207Z,11.35
2022-10-02T05:08:26.840Z,11.52
2022-10-02T05:11:47.419Z,11.58
2022-10-02T05:15:08.699Z,11.60
2022-10-02T05:18:20.596Z,11.60
2022-10-02T05:21:34.915Z,11.53
2022-10-02T05:24:40.123Z,11.59
2022-10-02T05:28:08.464Z,11.54
2022-10-02T05:31:36.602Z,11.56
2022-10-02T05:34:57.582Z,11.68
2022-10-02T05:38:21.440Z,11.64
2022-10-02T05:41:31.449Z,11.83
2022-10-02T05:44:39.266Z,11.97
2022-10-02T05:47:46.324Z,12.11
2022-10-02T05:50:52.216Z,12.07
2022-10-02T05:54:01.216Z,12.16
2022-10-02T05:57:15.551Z,12.23
2022-10-02T06:00:24.225Z,13.28
2022-10-02T06:03:45.665Z,15.31
2022-10-02T06:06:51.617Z,15.27
2022-10-02T06:09:54.175Z,14.65
2022-10-02T06:13:13.168Z,14.18
2022-10-02T06:16:20.297Z,14.07
2022-10-02T06:19:27.159Z,15.60
2022-10-02T06:22:33.131Z,16.14
2022-10-02T06:25:41.924Z,15.98
2022-10-02T06:28:51.224Z,15.06
2022-10-02T06:32:05.084Z,14.59
2022-10-02T06:35:15.737Z,16.90
2022-10-02T06:38:36.386Z,21.65
2022-10-02T06:41:57.912Z,19.32
2022-10-02T06:45:03.770Z,16.44
2022-10-02T06:48:09.517Z,15.21
2022-10-02T06:51:21.149Z,14.60
2022-10-02T06:54:23.903Z,14.35
2022-10-02T06:57:34.645Z,14.17
2022-10-02T07:00:45.857Z,14.16
2022-10-02T07:04:04.634Z,14.29
2022-10-02T07:07:16.688Z,14.28
2022-10-02T07:10:22.956Z,14.30
2022-10-02T07:13:26.010Z,14.36
2022-10-02T07:16:54.881Z,14.34
2022-10-02T07:19:57.469Z,14.38
2022-10-02T07:22:59.803Z,14.43
2022-10-02T07:26:21.951Z,14.46
2022-10-02T07:29:43.132Z,14.49
2022-10-02T07:32:48.565Z,14.62
2022-10-02T07:35:59.678Z,14.71
2022-10-02T07:39:02.246Z,14.69
2022-10-02T07:42:10.756Z,14.76
2022-10-02T07:45:22.361Z,14.75
2022-10-02T07:48:40.368Z,14.88
2022-10-02T07:51:59.056Z,14.93
2022-10-02T07:55:01.421Z,15.01
2022-10-02T07:58:03.955Z,14.93
2022-10-02T08:01:11.218Z,14.97
2022-10-02T08:04:17.455Z,15.06
2022-10-02T08:07:20.027Z,15.05
2022-10-02T08:10:25.763Z,15.08
2022-10-02T08:13:31.404Z,15.22
2022-10-02T08:16:39.114Z,15.28
2022-10-02T08:19:45.398Z,15.47
2022-10-02T08:22:50.910Z,15.63
2022-10-02T08:25:56.079Z,15.98
2022-10-02T08:29:05.555Z,16.11
2022-10-02T08:32:11.956Z,16.11
2022-10-02T08:35:19.103Z,15.99
2022-10-02T08:38:40.427Z,15.93
2022-10-02T08:42:04.251Z,15.97
2022-10-02T08:45:12.586Z,15.92
2022-10-02T08:48:34.162Z,16.06
2022-10-02T08:51:48.689Z,16.09
2022-10-02T08:55:09.963Z,16.04
2022-10-02T08:58:38.860Z,16.20
2022-10-02T09:01:41.465Z,16.63
2022-10-02T09:05:19.412Z,17.06
2022-10-02T09:08:26.286Z,17.16
2022-10-02T09:11:28.528Z,16.83
2022-10-02T09:14:43.643Z,16.78
2022-10-02T09:17:48.196Z,16.73
2022-10-02T09:20:50.905Z,16.71
2022-10-02T09:23:55.162Z,16.79
2022-10-02T09:26:57.772Z,16.76
2022-10-02T09:30:19.234Z,16.59
2022-10-02T09:33:21.741Z,16.61
2022-10-02T09:36:24.835Z,16.72
2022-10-02T09:39:36.669Z,16.98
2022-10-02T09:42:55.063Z,17.18
2022-10-02T09:46:22.197Z,17.29
2022-10-02T09:49:32.052Z,17.53
2022-10-02T09:52:59.644Z,17.83
2022-10-02T09:56:11.058Z,18.03
2022-10-02T09:59:34.767Z,17.89
2022-10-02T10:02:46.638Z,17.93
2022-10-02T10:06:04.569Z,17.91
2022-10-02T10:09:25.898Z,17.76
2022-10-02T10:12:37.523Z,17.87
2022-10-02T10:15:40.661Z,18.28
2022-10-02T10:19:03.336Z,18.09
2022-10-02T10:22:27.169Z,18.00
2022-10-02T10:25:39.035Z,17.84
2022-10-02T10:29:04.810Z,17.73
2022-10-02T10:32:26.436Z,17.63
2022-10-02T10:35:28.775Z,17.43
2022-10-02T10:38:34.070Z,17.11
2022-10-02T10:41:39.758Z,17.11
2022-10-02T10:44:59.625Z,17.39
2022-10-02T10:48:05.121Z,17.42
2022-10-02T10:51:14.304Z,17.46
2022-10-02T10:54:21.451Z,17.21
2022-10-02T10:57:39.125Z,17.17
2022-10-02T11:00:58.618Z,17.30
2022-10-02T11:04:13.338Z,17.21
2022-10-02T11:07:24.949Z,17.23
2022-10-02T11:10:44.170Z,17.31
2022-10-02T11:14:08.607Z,17.60
2022-10-02T11:17:17.297Z,17.64
2022-10-02T11:20:38.418Z,17.49
2022-10-02T11:23:59.483Z,17.57
2022-10-02T11:27:20.930Z,17.83
2022-10-02T11:30:25.282Z,17.86
2022-10-02T11:33:30.954Z,18.32
2022-10-02T11:36:42.595Z,18.89
2022-10-02T11:39:47.939Z,19.18
2022-10-02T11:42:56.764Z,19.22
2022-10-02T11:46:21.582Z,18.63
2022-10-02T11:49:43.179Z,18.73
2022-10-02T11:52:48.244Z,18.22
2022-10-02T11:55:53.884Z,17.94
2022-10-02T11:58:56.114Z,18.00
2022-10-02T12:02:17.567Z,18.00
2022-10-02T12:05:30.641Z,17.99
2022-10-02T12:08:34.401Z,18.33
2022-10-02T12:11:44.143Z,18.39
2022-10-02T12:14:49.457Z,18.54
2022-10-02T12:18:11.168Z,18.61
2022-10-02T12:21:41.392Z,18.21
2022-10-02T12:25:02.792Z,18.04
2022-10-02T12:28:17.373Z,18.09
2022-10-02T12:31:26.510Z,18.09
2022-10-02T12:34:43.870Z,18.27
2022-10-02T12:37:49.510Z,18.27
2022-10-02T12:41:10.482Z,18.11
2022-10-02T12:44:24.672Z,17.96
2022-10-02T12:47:29.067Z,17.98
2022-10-02T12:50:41.433Z,18.06
2022-10-02T12:54:04.643Z,17.99
2022-10-02T12:57:07.371Z,17.90
2022-10-02T13:00:20.633Z,17.74
2022-10-02T13:03:42.162Z,17.55
2022-10-02T13:06:53.825Z,17.28
2022-10-02T13:10:02.322Z,17.14
2022-10-02T13:13:43.314Z,17.27
2022-10-02T13:16:49.024Z,17.29
2022-10-02T13:20:14.693Z,17.39
2022-10-02T13:23:32.056Z,17.43
2022-10-02T13:27:18.535Z,17.38
2022-10-02T13:30:23.094Z,17.24
2022-10-02T13:33:42.693Z,17.25
2022-10-02T13:36:45.447Z,17.17
2022-10-02T13:39:53.841Z,17.27
2022-10-02T13:43:15.275Z,17.19
2022-10-02T13:46:32.954Z,16.97
2022-10-02T13:49:56.245Z,16.81
2022-10-02T13:53:16.972Z,16.87
2022-10-02T13:56:28.839Z,17.02
2022-10-02T13:59:31.189Z,17.00
2022-10-02T14:02:34.030Z,17.08
2022-10-02T14:05:42.560Z,17.18
2022-10-02T14:08:44.817Z,17.31
2022-10-02T14:11:56.416Z,17.30
2022-10-02T14:14:58.647Z,17.38
2022-10-02T14:18:16.364Z,17.39
2022-10-02T14:21:21.621Z,17.40
2022-10-02T14:25:00.745Z,17.21
2022-10-02T14:28:06.052Z,17.07
2022-10-02T14:31:28.016Z,16.97
2022-10-02T14:34:49.320Z,16.81
2022-10-02T14:38:04.368Z,16.78
2022-10-02T14:41:19.651Z,16.75
2022-10-02T14:44:29.079Z,16.66
2022-10-02T14:47:34.365Z,16.67
2022-10-02T14:50:39.933Z,16.63
2022-10-02T14:53:52.548Z,16.53
2022-10-02T14:57:01.396Z,16.43
2022-10-02T15:00:24.701Z,16.33
2022-10-02T15:03:37.404Z,16.28
2022-10-02T15:06:42.647Z,16.15
2022-10-02T15:09:54.598Z,16.07
2022-10-02T15:13:09.848Z,16.08
2022-10-02T15:16:38.052Z,16.07
2022-10-02T15:19:49.723Z,15.98
2022-10-02T15:22:57.341Z,16.01
2022-10-02T15:26:19.922Z,15.96
2022-10-02T15:29:30.567Z,15.96
2022-10-02T15:32:39.681Z,15.84
2022-10-02T15:36:20.854Z,15.84
2022-10-02T15:39:28.932Z,15.86
2022-10-02T15:42:52.379Z,15.73
2022-10-02T15:46:27.761Z,15.71
2022-10-02T15:49:33.907Z,15.56
2022-10-02T15:52:42.413Z,15.50
2022-10-02T15:55:52.651Z,15.36
2022-10-02T15:58:59.612Z,15.31
2022-10-02T16:02:11.095Z,15.20
2022-10-02T16:05:20.785Z,15.17
2022-10-02T16:08:26.097Z,15.17
2022-10-02T16:11:34.613Z,15.07
2022-10-02T16:14:58.841Z,15.01
2022-10-02T16:18:04.124Z,14.88
2022-10-02T16:21:26.332Z,14.83
2022-10-02T16:24:31.810Z,14.79
2022-10-02T16:27:51.460Z,14.77
2022-10-02T16:31:01.892Z,14.72
2022-10-02T16:34:19.270Z,14.68
2022-10-02T16:37:21.822Z,14.66
2022-10-02T16:40:24.898Z,14.64
2022-10-02T16:43:39.532Z,14.63
2022-10-02T16:46:51.933Z,14.62
2022-10-02T16:50:00.595Z,14.65
2022-10-02T16:53:05.488Z,14.73
2022-10-02T16:56:15.091Z,14.70
2022-10-02T16:59:22.223Z,14.72
2022-10-02T17:02:47.156Z,14.69
2022-10-02T17:05:52.361Z,14.64
2022-10-02T17:09:00.998Z,14.61
2022-10-02T17:12:09.596Z,14.58
2022-10-02T17:15:15.291Z,14.50
2022-10-02T17:18:26.598Z,14.51
2022-10-02T17:21:39.191Z,14.52
2022-10-02T17:25:00.125Z,14.58
2022-10-02T17:28:17.229Z,14.56
2022-10-02T17:31:25.280Z,14.56
2022-10-02T17:34:46.104Z,14.51
2022-10-02T17:37:51.654Z,14.53
2022-10-02T17:41:02.561Z,14.54
2022-10-02T17:44:11.588Z,14.53
2022-10-02T17:47:25.795Z,14.51
2022-10-02T17:50:30.947Z,14.46
2022-10-02T17:54:18.301Z,14.66
2022-10-02T17:57:23.527Z,14.56
2022-10-02T18:00:30.697Z,14.45
2022-10-02T18:03:43.879Z,14.34
2022-10-02T18:07:05.227Z,14.45
2022-10-02T18:10:20.056Z,14.50
2022-10-02T18:13:45.021Z,14.46
2022-10-02T18:16:57.017Z,14.56
2022-10-02T18:19:59.299Z,14.55
2022-10-02T18:23:13.048Z,14.61
2022-10-02T18:26:34.279Z,14.63
2022-10-02T18:29:36.890Z,14.62
2022-10-02T18:32:48.523Z,14.64
2022-10-02T18:36:12.904Z,14.65
2022-10-02T18:39:23.406Z,14.60
2022-10-02T18:42:39.255Z,14.55
2022-10-02T18:45:50.952Z,14.63
2022-10-02T18:49:12.671Z,14.61
2022-10-02T18:52:27.946Z,14.57
2022-10-02T18:55:45.565Z,14.60
2022-10-02T18:59:06.817Z,14.56
2022-10-02T19:02:33.872Z,14.60
2022-10-02T19:05:55.383Z,14.58
2022-10-02T19:09:04.756Z,14.49
2022-10-02T19:12:13.979Z,14.47
2022-10-02T19:15:24.014Z,14.42
2022-10-02T19:18:27.831Z,14.42
2022-10-02T19:21:34.182Z,14.38
2022-10-02T19:24:38.505Z,14.35
2022-10-02T19:27:43.622Z,14.33
2022-10-02T19:30:52.354Z,14.32
2022-10-02T19:34:18.423Z,14.30
2022-10-02T19:37:22.953Z,14.32
2022-10-02T19:40:31.633Z,14.27
2022-10-02T19:43:35.549Z,14.29
2022-10-02T19:46:41.304Z,14.25
2022-10-02T19:49:46.632Z,14.21
2022-10-02T19:52:58.255Z,14.16
2022-10-02T19:56:03.418Z,14.16
2022-10-02T19:59:20.098Z,14.13
2022-10-02T20:02:43.501Z,14.12
2022-10-02T20:05:48.092Z,14.09
2022-10-02T20:09:01.128Z,14.12
2022-10-02T20:12:21.899Z,14.08
2022-10-02T20:15:48.397Z,13.99
2022-10-02T20:18:51.703Z,13.95
2022-10-02T20:21:54.918Z,13.89
2022-10-02T20:25:06.554Z,13.80
2022-10-02T20:28:17.235Z,13.78
2022-10-02T20:31:24.481Z,13.73
2022-10-02T20:34:31.591Z,13.68
2022-10-02T20:37:35.013Z,13.79
2022-10-02T20:40:39.821Z,13.75
2022-10-02T20:43:55.216Z,13.79
2022-10-02T20:47:03.284Z,13.80
2022-10-02T20:50:05.868Z,13.74
2022-10-02T20:53:23.424Z,13.70
2022-10-02T20:56:45.538Z,13.66
2022-10-02T20:59:51.029Z,13.68
2022-10-02T21:03:08.938Z,13.63
2022-10-02T21:06:29.999Z,13.66
2022-10-02T21:09:47.988Z,13.67
2022-10-02T21:12:55.718Z,13.72
2022-10-02T21:16:10.830Z,13.70
2022-10-02T21:19:23.544Z,13.75
2022-10-02T21:22:58.958Z,13.67
2022-10-02T21:26:04.218Z,13.70
2022-10-02T21:29:26.087Z,13.63
2022-10-02T21:32:40.919Z,13.59
2022-10-02T21:35:52.067Z,13.60
2022-10-02T21:39:28.261Z,13.57
2022-10-02T21:42:51.001Z,13.51
2022-10-02T21:46:13.944Z,13.50
2022-10-02T21:49:20.068Z,13.48
2022-10-02T21:52:41.533Z,13.48
2022-10-02T21:56:04.324Z,13.50
2022-10-02T21:59:06.594Z,13.49
2022-10-02T22:02:38.386Z,13.36
2022-10-02T22:05:43.865Z,13.37
2022-10-02T22:08:46.265Z,13.33
2022-10-02T22:11:57.462Z,13.31
2022-10-02T22:15:12.014Z,13.23
2022-10-02T22:18:26.750Z,13.17
2022-10-02T22:21:58.558Z,13.15
2022-10-02T22:25:19.998Z,13.10
2022-10-02T22:28:38.395Z,13.06
2022-10-02T22:31:53.250Z,13.08
2022-10-02T22:35:00.121Z,13.02
2022-10-02T22:38:09.194Z,12.99
2022-10-02T22:41:24.588Z,13.03
2022-10-02T22:44:39.395Z,13.04
2022-10-02T22:47:47.194Z,12.96
2022-10-02T22:50:52.825Z,13.03
2022-10-02T22:54:11.610Z,13.04
2022-10-02T22:57:20.799Z,12.96
2022-10-02T23:00:26.010Z,12.94
2022-10-02T23:03:36.545Z,12.94
2022-10-02T23:06:41.846Z,12.90
2022-10-02T23:09:49.110Z,12.85
2022-10-02T23:12:58.161Z,12.88
2022-10-02T23:16:03.729Z,12.87
2022-10-02T23:19:06.003Z,12.85
2022-10-02T23:22:23.438Z,12.81
2022-10-02T23:25:46.603Z,12.75
2022-10-02T23:28:54.696Z,12.81
2022-10-02T23:32:00.835Z,12.81
2022-10-02T23:35:15.551Z,12.79
2022-10-02T23:38:23.777Z,12.73
2022-10-02T23:41:46.970Z,12.72
2022-10-02T23:44:55.799Z,12.69
2022-10-02T23:48:05.900Z,12.64
2022-10-02T23:51:32.945Z,12.63
2022-10-02T23:54:35.597Z,12.57
2022-10-02T23:57:56.392Z,12.56
